sensor_id;sensor_type;location;lat;lon;timestamp;temperature;humidity
64833;HTU21D;51290;45.060;38.948;2023-02-08T00:01:25;-3.49;87.98
64833;HTU21D;51290;45.060;38.948;2023-02-08T00:03:52;-3.47;88.01
64833;HTU21D;51290;45.060;38.948;2023-02-08T00:06:18;-3.47;87.86
64833;HTU21D;51290;45.060;38.948;2023-02-08T00:08:44;-3.49;87.73
64833;HTU21D;51290;45.060;38.948;2023-02-08T00:11:11;-3.51;87.63
64833;HTU21D;51290;45.060;38.948;2023-02-08T00:13:39;-3.55;87.55
64833;HTU21D;51290;45.060;38.948;2023-02-08T00:16:06;-3.56;87.54
64833;HTU21D;51290;45.060;38.948;2023-02-08T00:18:33;-3.58;87.65
64833;HTU21D;51290;45.060;38.948;2023-02-08T00:20:59;-3.58;87.28
64833;HTU21D;51290;45.060;38.948;2023-02-08T00:23:25;-3.63;87.32
64833;HTU21D;51290;45.060;38.948;2023-02-08T00:25:51;-3.65;87.49
64833;HTU21D;51290;45.060;38.948;2023-02-08T00:28:18;-3.67;87.27
64833;HTU21D;51290;45.060;38.948;2023-02-08T00:30:44;-3.71;87.32
64833;HTU21D;51290;45.060;38.948;2023-02-08T00:33:10;-3.76;87.25
64833;HTU21D;51290;45.060;38.948;2023-02-08T00:35:37;-3.78;87.19
64833;HTU21D;51290;45.060;38.948;2023-02-08T00:38:03;-3.81;87.27
64833;HTU21D;51290;45.060;38.948;2023-02-08T00:40:29;-3.84;87.08
64833;HTU21D;51290;45.060;38.948;2023-02-08T00:42:56;-3.86;87.33
64833;HTU21D;51290;45.060;38.948;2023-02-08T00:45:22;-3.85;87.40
64833;HTU21D;51290;45.060;38.948;2023-02-08T00:47:48;-3.85;87.35
64833;HTU21D;51290;45.060;38.948;2023-02-08T00:50:14;-3.87;87.35
64833;HTU21D;51290;45.060;38.948;2023-02-08T00:52:40;-3.89;87.35
64833;HTU21D;51290;45.060;38.948;2023-02-08T00:55:06;-3.90;87.30
64833;HTU21D;51290;45.060;38.948;2023-02-08T00:57:33;-3.92;87.41
64833;HTU21D;51290;45.060;38.948;2023-02-08T00:59:59;-3.94;87.35
64833;HTU21D;51290;45.060;38.948;2023-02-08T01:02:25;-3.94;87.52
64833;HTU21D;51290;45.060;38.948;2023-02-08T01:04:52;-3.94;87.58
64833;HTU21D;51290;45.060;38.948;2023-02-08T01:07:18;-3.92;87.73
64833;HTU21D;51290;45.060;38.948;2023-02-08T01:09:44;-3.90;87.83
64833;HTU21D;51290;45.060;38.948;2023-02-08T01:12:10;-3.90;87.59
64833;HTU21D;51290;45.060;38.948;2023-02-08T01:14:37;-3.94;87.09
64833;HTU21D;51290;45.060;38.948;2023-02-08T01:17:05;-3.96;87.17
64833;HTU21D;51290;45.060;38.948;2023-02-08T01:19:31;-4.00;86.70
64833;HTU21D;51290;45.060;38.948;2023-02-08T01:21:58;-4.05;86.62
64833;HTU21D;51290;45.060;38.948;2023-02-08T01:24:24;-4.06;86.86
64833;HTU21D;51290;45.060;38.948;2023-02-08T01:26:51;-4.10;86.74
64833;HTU21D;51290;45.060;38.948;2023-02-08T01:29:17;-4.10;86.92
64833;HTU21D;51290;45.060;38.948;2023-02-08T01:31:43;-4.12;86.74
64833;HTU21D;51290;45.060;38.948;2023-02-08T01:34:10;-4.14;86.61
64833;HTU21D;51290;45.060;38.948;2023-02-08T01:36:38;-4.16;86.40
64833;HTU21D;51290;45.060;38.948;2023-02-08T01:39:07;-4.21;86.29
64833;HTU21D;51290;45.060;38.948;2023-02-08T01:41:37;-4.24;86.25
64833;HTU21D;51290;45.060;38.948;2023-02-08T01:46:47;-4.23;86.60
64833;HTU21D;51290;45.060;38.948;2023-02-08T01:49:19;-4.22;86.65
64833;HTU21D;51290;45.060;38.948;2023-02-08T01:51:49;-4.23;86.42
64833;HTU21D;51290;45.060;38.948;2023-02-08T01:54:18;-4.24;86.55
64833;HTU21D;51290;45.060;38.948;2023-02-08T01:56:46;-4.26;86.49
64833;HTU21D;51290;45.060;38.948;2023-02-08T01:59:19;-4.25;86.50
64833;HTU21D;51290;45.060;38.948;2023-02-08T02:01:47;-4.31;85.83
64833;HTU21D;51290;45.060;38.948;2023-02-08T02:04:14;-4.37;85.96
64833;HTU21D;51290;45.060;38.948;2023-02-08T02:06:46;-4.42;85.87
64833;HTU21D;51290;45.060;38.948;2023-02-08T02:09:26;-4.45;86.03
64833;HTU21D;51290;45.060;38.948;2023-02-08T02:11:53;-4.50;85.90
64833;HTU21D;51290;45.060;38.948;2023-02-08T02:14:21;-4.52;85.84
64833;HTU21D;51290;45.060;38.948;2023-02-08T02:16:48;-4.59;85.42
64833;HTU21D;51290;45.060;38.948;2023-02-08T02:28:05;-4.81;85.07
64833;HTU21D;51290;45.060;38.948;2023-02-08T02:36:16;-4.93;85.59
64833;HTU21D;51290;45.060;38.948;2023-02-08T02:50:25;-5.15;85.49
64833;HTU21D;51290;45.060;38.948;2023-02-08T02:53:01;-5.15;85.76
64833;HTU21D;51290;45.060;38.948;2023-02-08T02:55:32;-5.14;85.94
64833;HTU21D;51290;45.060;38.948;2023-02-08T02:58:01;-5.14;86.17
64833;HTU21D;51290;45.060;38.948;2023-02-08T03:00:28;-5.12;86.19
64833;HTU21D;51290;45.060;38.948;2023-02-08T03:02:55;-5.14;85.96
64833;HTU21D;51290;45.060;38.948;2023-02-08T03:05:24;-5.17;85.78
64833;HTU21D;51290;45.060;38.948;2023-02-08T03:08:08;-5.18;85.80
64833;HTU21D;51290;45.060;38.948;2023-02-08T03:10:52;-5.18;85.64
64833;HTU21D;51290;45.060;38.948;2023-02-08T03:16:04;-5.24;85.74
64833;HTU21D;51290;45.060;38.948;2023-02-08T03:24:24;-5.13;86.37
64833;HTU21D;51290;45.060;38.948;2023-02-08T03:29:59;-5.12;86.18
64833;HTU21D;51290;45.060;38.948;2023-02-08T03:32:45;-5.11;86.01
64833;HTU21D;51290;45.060;38.948;2023-02-08T03:35:26;-5.11;86.01
64833;HTU21D;51290;45.060;38.948;2023-02-08T03:38:06;-5.12;86.03
64833;HTU21D;51290;45.060;38.948;2023-02-08T03:40:41;-5.11;86.21
64833;HTU21D;51290;45.060;38.948;2023-02-08T03:43:13;-5.09;86.38
64833;HTU21D;51290;45.060;38.948;2023-02-08T03:45:53;-5.04;86.65
64833;HTU21D;51290;45.060;38.948;2023-02-08T03:48:20;-5.00;86.71
64833;HTU21D;51290;45.060;38.948;2023-02-08T03:50:50;-4.98;86.58
64833;HTU21D;51290;45.060;38.948;2023-02-08T03:53:20;-4.94;86.63
64833;HTU21D;51290;45.060;38.948;2023-02-08T03:55:49;-4.95;86.23
64833;HTU21D;51290;45.060;38.948;2023-02-08T03:58:24;-4.97;86.26
64833;HTU21D;51290;45.060;38.948;2023-02-08T04:00:54;-4.99;86.37
64833;HTU21D;51290;45.060;38.948;2023-02-08T04:03:23;-5.00;86.53
64833;HTU21D;51290;45.060;38.948;2023-02-08T04:05:51;-4.98;86.70
64833;HTU21D;51290;45.060;38.948;2023-02-08T04:08:17;-4.94;86.80
64833;HTU21D;51290;45.060;38.948;2023-02-08T04:10:44;-4.96;86.54
64833;HTU21D;51290;45.060;38.948;2023-02-08T04:13:11;-4.99;86.36
64833;HTU21D;51290;45.060;38.948;2023-02-08T04:15:37;-5.01;86.30
64833;HTU21D;51290;45.060;38.948;2023-02-08T04:18:03;-5.05;86.30
64833;HTU21D;51290;45.060;38.948;2023-02-08T04:20:29;-5.10;86.18
64833;HTU21D;51290;45.060;38.948;2023-02-08T04:22:55;-5.14;86.17
64833;HTU21D;51290;45.060;38.948;2023-02-08T04:25:21;-5.18;86.05
64833;HTU21D;51290;45.060;38.948;2023-02-08T04:27:47;-5.24;85.87
64833;HTU21D;51290;45.060;38.948;2023-02-08T04:30:13;-5.25;86.14
64833;HTU21D;51290;45.060;38.948;2023-02-08T04:32:39;-5.30;85.96
64833;HTU21D;51290;45.060;38.948;2023-02-08T04:35:05;-5.35;85.74
64833;HTU21D;51290;45.060;38.948;2023-02-08T04:37:32;-5.37;86.04
64833;HTU21D;51290;45.060;38.948;2023-02-08T04:39:58;-5.39;85.85
64833;HTU21D;51290;45.060;38.948;2023-02-08T04:42:24;-5.42;85.96
64833;HTU21D;51290;45.060;38.948;2023-02-08T04:44:49;-5.44;86.10
64833;HTU21D;51290;45.060;38.948;2023-02-08T04:47:16;-5.43;86.39
64833;HTU21D;51290;45.060;38.948;2023-02-08T04:49:42;-5.41;86.40
64833;HTU21D;51290;45.060;38.948;2023-02-08T04:52:08;-5.39;86.51
64833;HTU21D;51290;45.060;38.948;2023-02-08T04:54:34;-5.37;86.32
64833;HTU21D;51290;45.060;38.948;2023-02-08T04:57:00;-5.39;86.27
64833;HTU21D;51290;45.060;38.948;2023-02-08T04:59:26;-5.39;86.32
64833;HTU21D;51290;45.060;38.948;2023-02-08T05:01:52;-5.37;86.32
64833;HTU21D;51290;45.060;38.948;2023-02-08T05:04:18;-5.35;86.46
64833;HTU21D;51290;45.060;38.948;2023-02-08T05:06:44;-5.33;86.41
64833;HTU21D;51290;45.060;38.948;2023-02-08T05:09:11;-5.29;86.52
64833;HTU21D;51290;45.060;38.948;2023-02-08T05:11:37;-5.28;86.34
64833;HTU21D;51290;45.060;38.948;2023-02-08T05:14:03;-5.28;86.46
64833;HTU21D;51290;45.060;38.948;2023-02-08T05:16:29;-5.25;86.63
64833;HTU21D;51290;45.060;38.948;2023-02-08T05:18:55;-5.23;86.51
64833;HTU21D;51290;45.060;38.948;2023-02-08T05:21:23;-5.18;86.48
64833;HTU21D;51290;45.060;38.948;2023-02-08T05:23:50;-5.19;86.19
64833;HTU21D;51290;45.060;38.948;2023-02-08T05:26:16;-5.20;86.20
64833;HTU21D;51290;45.060;38.948;2023-02-08T05:28:43;-5.22;85.72
64833;HTU21D;51290;45.060;38.948;2023-02-08T05:31:27;-5.24;85.77
64833;HTU21D;51290;45.060;38.948;2023-02-08T05:33:53;-5.24;86.03
64833;HTU21D;51290;45.060;38.948;2023-02-08T05:36:19;-5.19;86.17
64833;HTU21D;51290;45.060;38.948;2023-02-08T05:38:46;-5.15;86.30
64833;HTU21D;51290;45.060;38.948;2023-02-08T05:41:13;-5.12;86.16
64833;HTU21D;51290;45.060;38.948;2023-02-08T05:43:39;-5.14;85.93
64833;HTU21D;51290;45.060;38.948;2023-02-08T05:46:05;-5.15;85.67
64833;HTU21D;51290;45.060;38.948;2023-02-08T05:48:32;-5.15;85.77
64833;HTU21D;51290;45.060;38.948;2023-02-08T05:50:58;-5.13;86.00
64833;HTU21D;51290;45.060;38.948;2023-02-08T05:53:25;-5.10;86.05
64833;HTU21D;51290;45.060;38.948;2023-02-08T05:55:52;-5.02;86.20
64833;HTU21D;51290;45.060;38.948;2023-02-08T05:58:18;-4.98;86.21
64833;HTU21D;51290;45.060;38.948;2023-02-08T06:00:44;-4.98;85.56
64833;HTU21D;51290;45.060;38.948;2023-02-08T06:03:10;-5.04;85.03
64833;HTU21D;51290;45.060;38.948;2023-02-08T06:05:38;-5.08;85.40
64833;HTU21D;51290;45.060;38.948;2023-02-08T06:08:04;-5.11;84.57
64833;HTU21D;51290;45.060;38.948;2023-02-08T06:10:31;-5.11;84.98
64833;HTU21D;51290;45.060;38.948;2023-02-08T06:12:57;-5.10;85.26
64833;HTU21D;51290;45.060;38.948;2023-02-08T06:15:23;-5.05;85.58
64833;HTU21D;51290;45.060;38.948;2023-02-08T06:17:49;-4.99;85.82
64833;HTU21D;51290;45.060;38.948;2023-02-08T06:20:15;-4.91;85.90
64833;HTU21D;51290;45.060;38.948;2023-02-08T06:22:42;-4.89;85.17
64833;HTU21D;51290;45.060;38.948;2023-02-08T06:25:08;-4.93;84.90
64833;HTU21D;51290;45.060;38.948;2023-02-08T06:27:34;-4.94;84.97
64833;HTU21D;51290;45.060;38.948;2023-02-08T06:30:00;-4.96;85.17
64833;HTU21D;51290;45.060;38.948;2023-02-08T06:32:26;-4.94;85.35
64833;HTU21D;51290;45.060;38.948;2023-02-08T06:34:52;-4.96;84.84
64833;HTU21D;51290;45.060;38.948;2023-02-08T06:37:18;-5.01;84.61
64833;HTU21D;51290;45.060;38.948;2023-02-08T06:39:44;-5.05;84.68
64833;HTU21D;51290;45.060;38.948;2023-02-08T06:42:11;-5.05;85.10
64833;HTU21D;51290;45.060;38.948;2023-02-08T06:44:37;-5.02;85.03
64833;HTU21D;51290;45.060;38.948;2023-02-08T06:47:03;-4.98;85.01
64833;HTU21D;51290;45.060;38.948;2023-02-08T06:49:29;-4.98;84.90
64833;HTU21D;51290;45.060;38.948;2023-02-08T06:51:55;-4.96;85.11
64833;HTU21D;51290;45.060;38.948;2023-02-08T06:54:21;-4.88;85.31
64833;HTU21D;51290;45.060;38.948;2023-02-08T06:56:49;-4.82;85.36
64833;HTU21D;51290;45.060;38.948;2023-02-08T06:59:14;-4.72;85.63
64833;HTU21D;51290;45.060;38.948;2023-02-08T07:01:40;-4.67;85.40
64833;HTU21D;51290;45.060;38.948;2023-02-08T07:04:06;-4.63;85.66
64833;HTU21D;51290;45.060;38.948;2023-02-08T07:06:32;-4.53;85.68
64833;HTU21D;51290;45.060;38.948;2023-02-08T07:08:58;-4.43;85.87
64833;HTU21D;51290;45.060;38.948;2023-02-08T07:11:25;-4.36;85.72
64833;HTU21D;51290;45.060;38.948;2023-02-08T07:13:51;-4.28;85.63
64833;HTU21D;51290;45.060;38.948;2023-02-08T07:16:18;-4.23;85.55
64833;HTU21D;51290;45.060;38.948;2023-02-08T07:18:44;-4.13;85.64
64833;HTU21D;51290;45.060;38.948;2023-02-08T07:21:11;-4.10;84.51
64833;HTU21D;51290;45.060;38.948;2023-02-08T07:23:40;-4.11;84.68
64833;HTU21D;51290;45.060;38.948;2023-02-08T07:26:09;-3.99;85.27
64833;HTU21D;51290;45.060;38.948;2023-02-08T07:28:36;-3.81;85.48
64833;HTU21D;51290;45.060;38.948;2023-02-08T07:31:08;-3.74;84.88
64833;HTU21D;51290;45.060;38.948;2023-02-08T07:33:35;-3.68;84.93
64833;HTU21D;51290;45.060;38.948;2023-02-08T07:36:01;-3.61;84.73
64833;HTU21D;51290;45.060;38.948;2023-02-08T07:38:31;-3.58;84.19
64833;HTU21D;51290;45.060;38.948;2023-02-08T07:41:03;-3.58;84.17
64833;HTU21D;51290;45.060;38.948;2023-02-08T07:43:30;-3.52;84.55
64833;HTU21D;51290;45.060;38.948;2023-02-08T07:46:13;-3.47;84.47
64833;HTU21D;51290;45.060;38.948;2023-02-08T07:48:39;-3.48;84.07
64833;HTU21D;51290;45.060;38.948;2023-02-08T07:51:05;-3.50;84.47
64833;HTU21D;51290;45.060;38.948;2023-02-08T07:53:32;-3.42;84.92
64833;HTU21D;51290;45.060;38.948;2023-02-08T07:55:58;-3.33;85.09
64833;HTU21D;51290;45.060;38.948;2023-02-08T07:58:24;-3.30;84.77
64833;HTU21D;51290;45.060;38.948;2023-02-08T08:00:50;-3.24;85.12
64833;HTU21D;51290;45.060;38.948;2023-02-08T08:03:17;-3.10;85.14
64833;HTU21D;51290;45.060;38.948;2023-02-08T08:05:43;-3.12;84.31
64833;HTU21D;51290;45.060;38.948;2023-02-08T08:08:10;-3.18;84.04
64833;HTU21D;51290;45.060;38.948;2023-02-08T08:10:36;-3.18;84.40
64833;HTU21D;51290;45.060;38.948;2023-02-08T08:13:03;-3.24;83.86
64833;HTU21D;51290;45.060;38.948;2023-02-08T08:15:29;-3.46;83.96
64833;HTU21D;51290;45.060;38.948;2023-02-08T08:17:55;-3.55;84.89
64833;HTU21D;51290;45.060;38.948;2023-02-08T08:20:22;-3.55;85.58
64833;HTU21D;51290;45.060;38.948;2023-02-08T08:22:48;-3.55;85.78
64833;HTU21D;51290;45.060;38.948;2023-02-08T08:25:14;-3.58;85.65
64833;HTU21D;51290;45.060;38.948;2023-02-08T08:27:41;-3.62;85.96
64833;HTU21D;51290;45.060;38.948;2023-02-08T08:30:12;-3.61;85.90
64833;HTU21D;51290;45.060;38.948;2023-02-08T08:32:39;-3.55;86.34
64833;HTU21D;51290;45.060;38.948;2023-02-08T08:35:06;-3.50;85.96
64833;HTU21D;51290;45.060;38.948;2023-02-08T08:37:33;-3.50;85.85
64833;HTU21D;51290;45.060;38.948;2023-02-08T08:39:59;-3.46;85.79
64833;HTU21D;51290;45.060;38.948;2023-02-08T08:42:25;-3.49;84.93
64833;HTU21D;51290;45.060;38.948;2023-02-08T08:44:52;-3.56;84.59
64833;HTU21D;51290;45.060;38.948;2023-02-08T08:47:18;-3.61;84.84
64833;HTU21D;51290;45.060;38.948;2023-02-08T08:49:44;-3.60;85.26
64833;HTU21D;51290;45.060;38.948;2023-02-08T08:52:11;-3.58;84.85
64833;HTU21D;51290;45.060;38.948;2023-02-08T08:54:38;-3.62;84.12
64833;HTU21D;51290;45.060;38.948;2023-02-08T08:57:04;-3.68;84.00
64833;HTU21D;51290;45.060;38.948;2023-02-08T08:59:31;-3.76;83.90
64833;HTU21D;51290;45.060;38.948;2023-02-08T09:01:57;-3.84;83.79
64833;HTU21D;51290;45.060;38.948;2023-02-08T09:04:23;-3.86;84.45
64833;HTU21D;51290;45.060;38.948;2023-02-08T09:06:50;-3.86;84.18
64833;HTU21D;51290;45.060;38.948;2023-02-08T09:09:17;-3.89;84.47
64833;HTU21D;51290;45.060;38.948;2023-02-08T09:11:43;-3.92;84.02
64833;HTU21D;51290;45.060;38.948;2023-02-08T09:14:10;-3.97;83.68
64833;HTU21D;51290;45.060;38.948;2023-02-08T09:16:36;-3.97;84.04
64833;HTU21D;51290;45.060;38.948;2023-02-08T09:19:06;-3.94;84.22
64833;HTU21D;51290;45.060;38.948;2023-02-08T09:21:33;-3.94;84.10
64833;HTU21D;51290;45.060;38.948;2023-02-08T09:24:02;-3.91;84.39
64833;HTU21D;51290;45.060;38.948;2023-02-08T09:26:29;-3.83;84.68
64833;HTU21D;51290;45.060;38.948;2023-02-08T09:28:55;-3.82;83.98
64833;HTU21D;51290;45.060;38.948;2023-02-08T09:31:29;-3.81;83.54
64833;HTU21D;51290;45.060;38.948;2023-02-08T09:33:58;-3.81;83.35
64833;HTU21D;51290;45.060;38.948;2023-02-08T09:36:27;-3.81;83.64
64833;HTU21D;51290;45.060;38.948;2023-02-08T09:38:56;-3.80;83.49
64833;HTU21D;51290;45.060;38.948;2023-02-08T09:47:41;-3.76;83.61
64833;HTU21D;51290;45.060;38.948;2023-02-08T09:50:38;-3.78;83.78
64833;HTU21D;51290;45.060;38.948;2023-02-08T09:55:51;-3.81;84.20
64833;HTU21D;51290;45.060;38.948;2023-02-08T09:58:43;-3.75;84.61
64833;HTU21D;51290;45.060;38.948;2023-02-08T10:01:24;-3.67;84.94
64833;HTU21D;51290;45.060;38.948;2023-02-08T10:03:56;-3.54;85.16
64833;HTU21D;51290;45.060;38.948;2023-02-08T10:06:23;-3.42;85.06
64833;HTU21D;51290;45.060;38.948;2023-02-08T10:08:51;-3.30;84.96
64833;HTU21D;51290;45.060;38.948;2023-02-08T10:14:25;-3.08;84.05
64833;HTU21D;51290;45.060;38.948;2023-02-08T10:34:19;-3.03;82.76
64833;HTU21D;51290;45.060;38.948;2023-02-08T10:36:50;-3.00;81.76
64833;HTU21D;51290;45.060;38.948;2023-02-08T10:39:21;-2.92;82.52
64833;HTU21D;51290;45.060;38.948;2023-02-08T10:41:50;-2.73;83.04
64833;HTU21D;51290;45.060;38.948;2023-02-08T10:52:05;-2.49;80.81
64833;HTU21D;51290;45.060;38.948;2023-02-08T10:54:33;-2.46;81.65
64833;HTU21D;51290;45.060;38.948;2023-02-08T10:57:05;-2.37;81.66
64833;HTU21D;51290;45.060;38.948;2023-02-08T10:59:56;-2.32;81.04
64833;HTU21D;51290;45.060;38.948;2023-02-08T11:02:24;-2.33;79.70
64833;HTU21D;51290;45.060;38.948;2023-02-08T11:04:59;-2.43;79.99
64833;HTU21D;51290;45.060;38.948;2023-02-08T11:07:25;-2.47;79.90
64833;HTU21D;51290;45.060;38.948;2023-02-08T11:09:51;-2.53;78.59
64833;HTU21D;51290;45.060;38.948;2023-02-08T11:12:19;-2.65;78.34
64833;HTU21D;51290;45.060;38.948;2023-02-08T11:14:52;-2.76;78.01
64833;HTU21D;51290;45.060;38.948;2023-02-08T11:17:36;-2.82;78.14
64833;HTU21D;51290;45.060;38.948;2023-02-08T11:20:03;-2.87;77.99
64833;HTU21D;51290;45.060;38.948;2023-02-08T11:22:30;-2.82;78.98
64833;HTU21D;51290;45.060;38.948;2023-02-08T11:25:02;-2.74;78.88
64833;HTU21D;51290;45.060;38.948;2023-02-08T11:27:31;-2.74;77.83
64833;HTU21D;51290;45.060;38.948;2023-02-08T11:32:44;-3.02;75.98
64833;HTU21D;51290;45.060;38.948;2023-02-08T11:37:51;-3.07;77.22
64833;HTU21D;51290;45.060;38.948;2023-02-08T11:40:24;-3.07;76.15
64833;HTU21D;51290;45.060;38.948;2023-02-08T11:42:51;-3.12;76.31
64833;HTU21D;51290;45.060;38.948;2023-02-08T11:45:21;-3.13;76.54
64833;HTU21D;51290;45.060;38.948;2023-02-08T11:47:48;-3.09;77.60
64833;HTU21D;51290;45.060;38.948;2023-02-08T11:50:26;-3.01;77.78
64833;HTU21D;51290;45.060;38.948;2023-02-08T11:52:58;-2.88;78.22
64833;HTU21D;51290;45.060;38.948;2023-02-08T11:55:28;-2.76;78.60
64833;HTU21D;51290;45.060;38.948;2023-02-08T12:00:33;-2.71;76.37
64833;HTU21D;51290;45.060;38.948;2023-02-08T12:03:24;-2.80;76.41
64833;HTU21D;51290;45.060;38.948;2023-02-08T12:20:31;-3.12;77.42
64833;HTU21D;51290;45.060;38.948;2023-02-08T12:32:02;-3.50;76.08
64833;HTU21D;51290;45.060;38.948;2023-02-08T12:34:40;-3.55;75.36
64833;HTU21D;51290;45.060;38.948;2023-02-08T12:54:40;-3.64;78.16
64833;HTU21D;51290;45.060;38.948;2023-02-08T12:57:11;-3.56;78.39
64833;HTU21D;51290;45.060;38.948;2023-02-08T13:00:17;-3.57;78.45
64833;HTU21D;51290;45.060;38.948;2023-02-08T13:02:59;-3.61;78.82
64833;HTU21D;51290;45.060;38.948;2023-02-08T13:05:32;-3.66;78.01
64833;HTU21D;51290;45.060;38.948;2023-02-08T13:08:03;-3.75;77.73
64833;HTU21D;51290;45.060;38.948;2023-02-08T13:10:38;-3.83;78.11
64833;HTU21D;51290;45.060;38.948;2023-02-08T13:16:09;-3.97;77.19
64833;HTU21D;51290;45.060;38.948;2023-02-08T13:19:10;-4.07;76.39
64833;HTU21D;51290;45.060;38.948;2023-02-08T13:21:43;-4.11;76.34
64833;HTU21D;51290;45.060;38.948;2023-02-08T13:24:34;-4.16;76.21
64833;HTU21D;51290;45.060;38.948;2023-02-08T13:27:01;-4.24;75.53
64833;HTU21D;51290;45.060;38.948;2023-02-08T13:29:30;-4.28;76.34
64833;HTU21D;51290;45.060;38.948;2023-02-08T13:32:09;-4.32;76.27
64833;HTU21D;51290;45.060;38.948;2023-02-08T13:34:49;-4.34;76.89
64833;HTU21D;51290;45.060;38.948;2023-02-08T13:37:24;-4.29;77.40
64833;HTU21D;51290;45.060;38.948;2023-02-08T13:40:06;-4.30;77.29
64833;HTU21D;51290;45.060;38.948;2023-02-08T13:42:39;-4.28;77.78
64833;HTU21D;51290;45.060;38.948;2023-02-08T13:45:09;-4.24;78.14
64833;HTU21D;51290;45.060;38.948;2023-02-08T13:47:47;-4.23;78.10
64833;HTU21D;51290;45.060;38.948;2023-02-08T13:53:02;-4.23;78.24
64833;HTU21D;51290;45.060;38.948;2023-02-08T14:06:47;-4.43;78.39
64833;HTU21D;51290;45.060;38.948;2023-02-08T14:09:22;-4.50;78.37
64833;HTU21D;51290;45.060;38.948;2023-02-08T14:11:55;-4.58;78.46
64833;HTU21D;51290;45.060;38.948;2023-02-08T14:14:25;-4.63;78.43
64833;HTU21D;51290;45.060;38.948;2023-02-08T14:19:41;-4.81;77.89
64833;HTU21D;51290;45.060;38.948;2023-02-08T14:24:47;-5.02;77.47
64833;HTU21D;51290;45.060;38.948;2023-02-08T14:27:37;-5.10;78.41
64833;HTU21D;51290;45.060;38.948;2023-02-08T14:36:00;-5.37;78.43
64833;HTU21D;51290;45.060;38.948;2023-02-08T14:41:04;-5.50;77.79
64833;HTU21D;51290;45.060;38.948;2023-02-08T14:43:34;-5.53;78.28
64833;HTU21D;51290;45.060;38.948;2023-02-08T14:49:15;-5.53;78.16
64833;HTU21D;51290;45.060;38.948;2023-02-08T14:51:52;-5.52;77.98
64833;HTU21D;51290;45.060;38.948;2023-02-08T14:54:31;-5.49;78.34
64833;HTU21D;51290;45.060;38.948;2023-02-08T14:57:03;-5.50;77.74
64833;HTU21D;51290;45.060;38.948;2023-02-08T14:59:32;-5.54;78.08
64833;HTU21D;51290;45.060;38.948;2023-02-08T15:02:07;-5.60;78.04
64833;HTU21D;51290;45.060;38.948;2023-02-08T15:04:42;-5.64;78.44
64833;HTU21D;51290;45.060;38.948;2023-02-08T15:09:50;-5.76;78.88
64833;HTU21D;51290;45.060;38.948;2023-02-08T15:12:29;-5.82;78.91
64833;HTU21D;51290;45.060;38.948;2023-02-08T15:14:58;-5.84;79.04
64833;HTU21D;51290;45.060;38.948;2023-02-08T15:17:34;-5.87;79.01
64833;HTU21D;51290;45.060;38.948;2023-02-08T15:20:05;-5.88;79.09
64833;HTU21D;51290;45.060;38.948;2023-02-08T15:22:35;-5.88;78.93
64833;HTU21D;51290;45.060;38.948;2023-02-08T15:25:23;-5.90;78.74
64833;HTU21D;51290;45.060;38.948;2023-02-08T15:27:59;-5.91;78.82
64833;HTU21D;51290;45.060;38.948;2023-02-08T15:30:26;-5.93;78.66
64833;HTU21D;51290;45.060;38.948;2023-02-08T15:32:53;-5.96;78.59
64833;HTU21D;51290;45.060;38.948;2023-02-08T15:35:20;-5.98;78.47
64833;HTU21D;51290;45.060;38.948;2023-02-08T15:37:49;-5.99;79.04
64833;HTU21D;51290;45.060;38.948;2023-02-08T15:40:28;-6.00;79.27
64833;HTU21D;51290;45.060;38.948;2023-02-08T15:43:02;-6.03;79.37
64833;HTU21D;51290;45.060;38.948;2023-02-08T15:45:29;-6.04;79.43
64833;HTU21D;51290;45.060;38.948;2023-02-08T15:47:55;-6.04;79.53
64833;HTU21D;51290;45.060;38.948;2023-02-08T15:50:22;-6.05;79.61
64833;HTU21D;51290;45.060;38.948;2023-02-08T15:53:03;-6.03;79.33
64833;HTU21D;51290;45.060;38.948;2023-02-08T15:55:47;-6.06;79.39
64833;HTU21D;51290;45.060;38.948;2023-02-08T16:00:55;-6.07;79.42
64833;HTU21D;51290;45.060;38.948;2023-02-08T16:03:22;-6.08;79.51
64833;HTU21D;51290;45.060;38.948;2023-02-08T16:05:57;-6.12;79.70
64833;HTU21D;51290;45.060;38.948;2023-02-08T16:08:26;-6.13;79.79
64833;HTU21D;51290;45.060;38.948;2023-02-08T16:10:58;-6.13;79.95
64833;HTU21D;51290;45.060;38.948;2023-02-08T16:13:29;-6.14;80.01
64833;HTU21D;51290;45.060;38.948;2023-02-08T16:16:20;-6.13;79.91
64833;HTU21D;51290;45.060;38.948;2023-02-08T16:19:04;-6.14;79.93
64833;HTU21D;51290;45.060;38.948;2023-02-08T16:29:16;-6.17;79.73
64833;HTU21D;51290;45.060;38.948;2023-02-08T16:31:45;-6.16;79.66
64833;HTU21D;51290;45.060;38.948;2023-02-08T16:34:17;-6.16;79.83
64833;HTU21D;51290;45.060;38.948;2023-02-08T16:36:46;-6.13;80.04
64833;HTU21D;51290;45.060;38.948;2023-02-08T16:42:01;-6.09;80.19
64833;HTU21D;51290;45.060;38.948;2023-02-08T16:44:35;-6.08;80.08
64833;HTU21D;51290;45.060;38.948;2023-02-08T16:47:23;-6.06;80.16
64833;HTU21D;51290;45.060;38.948;2023-02-08T16:49:49;-6.04;79.82
64833;HTU21D;51290;45.060;38.948;2023-02-08T16:52:17;-6.01;79.73
64833;HTU21D;51290;45.060;38.948;2023-02-08T16:54:44;-5.99;79.13
64833;HTU21D;51290;45.060;38.948;2023-02-08T16:57:10;-5.94;79.14
64833;HTU21D;51290;45.060;38.948;2023-02-08T16:59:36;-5.91;79.40
64833;HTU21D;51290;45.060;38.948;2023-02-08T17:02:02;-5.87;79.22
64833;HTU21D;51290;45.060;38.948;2023-02-08T17:04:28;-5.86;78.46
64833;HTU21D;51290;45.060;38.948;2023-02-08T17:06:56;-5.85;78.58
64833;HTU21D;51290;45.060;38.948;2023-02-08T17:09:22;-5.83;78.59
64833;HTU21D;51290;45.060;38.948;2023-02-08T17:11:48;-5.82;78.86
64833;HTU21D;51290;45.060;38.948;2023-02-08T17:14:14;-5.78;79.08
64833;HTU21D;51290;45.060;38.948;2023-02-08T17:16:40;-5.77;79.17
64833;HTU21D;51290;45.060;38.948;2023-02-08T17:19:14;-5.76;79.27
64833;HTU21D;51290;45.060;38.948;2023-02-08T17:21:41;-5.74;79.27
64833;HTU21D;51290;45.060;38.948;2023-02-08T17:24:07;-5.71;79.49
64833;HTU21D;51290;45.060;38.948;2023-02-08T17:26:41;-5.72;79.58
64833;HTU21D;51290;45.060;38.948;2023-02-08T17:29:10;-5.69;79.79
64833;HTU21D;51290;45.060;38.948;2023-02-08T17:31:37;-5.67;79.93
64833;HTU21D;51290;45.060;38.948;2023-02-08T17:34:03;-5.64;79.92
64833;HTU21D;51290;45.060;38.948;2023-02-08T17:36:31;-5.61;79.75
64833;HTU21D;51290;45.060;38.948;2023-02-08T17:38:58;-5.62;79.68
64833;HTU21D;51290;45.060;38.948;2023-02-08T17:41:24;-5.61;79.70
64833;HTU21D;51290;45.060;38.948;2023-02-08T17:43:52;-5.61;79.72
64833;HTU21D;51290;45.060;38.948;2023-02-08T17:46:22;-5.59;79.87
64833;HTU21D;51290;45.060;38.948;2023-02-08T17:48:48;-5.57;80.04
64833;HTU21D;51290;45.060;38.948;2023-02-08T17:51:17;-5.56;79.92
64833;HTU21D;51290;45.060;38.948;2023-02-08T17:53:43;-5.54;80.11
64833;HTU21D;51290;45.060;38.948;2023-02-08T17:56:14;-5.50;80.00
64833;HTU21D;51290;45.060;38.948;2023-02-08T17:58:41;-5.52;79.75
64833;HTU21D;51290;45.060;38.948;2023-02-08T18:01:08;-5.52;79.74
64833;HTU21D;51290;45.060;38.948;2023-02-08T18:03:38;-5.52;79.62
64833;HTU21D;51290;45.060;38.948;2023-02-08T18:06:04;-5.52;79.49
64833;HTU21D;51290;45.060;38.948;2023-02-08T18:08:30;-5.50;79.53
64833;HTU21D;51290;45.060;38.948;2023-02-08T18:11:05;-5.49;79.36
64833;HTU21D;51290;45.060;38.948;2023-02-08T18:13:31;-5.48;79.11